createdAt,value
2018-06-11T00:00:30.817Z,22.60
2018-06-11T00:03:12.144Z,22.50
2018-06-11T00:05:53.808Z,22.50
2018-06-11T00:08:35.360Z,22.50
2018-06-11T00:11:16.692Z,22.50
2018-06-11T00:13:58.389Z,22.50
2018-06-11T00:16:39.740Z,22.40
2018-06-11T00:19:21.124Z,22.40
2018-06-11T00:22:02.416Z,22.30
2018-06-11T00:24:43.765Z,22.30
2018-06-11T00:27:25.430Z,22.30
2018-06-11T00:30:06.884Z,22.20
2018-06-11T00:32:48.198Z,22.20
2018-06-11T00:35:30.050Z,22.20
2018-06-11T00:38:11.303Z,22.20
2018-06-11T00:40:52.704Z,22.10
2018-06-11T00:43:34.114Z,22.10
2018-06-11T00:46:15.538Z,22.10
2018-06-11T00:48:58.317Z,22.00
2018-06-11T00:51:39.653Z,22.00
2018-06-11T00:54:20.961Z,22.00
2018-06-11T00:57:03.173Z,21.90
2018-06-11T00:59:44.478Z,21.90
2018-06-11T01:02:26.377Z,21.90
2018-06-11T01:05:08.076Z,21.90
2018-06-11T01:07:49.536Z,21.70
2018-06-11T01:10:31.036Z,21.60
2018-06-11T01:13:12.352Z,21.60
2018-06-11T01:15:53.816Z,21.50
2018-06-11T01:18:35.336Z,21.50
2018-06-11T01:21:16.716Z,21.50
2018-06-11T01:23:58.232Z,21.40
2018-06-11T01:26:39.563Z,21.30
2018-06-11T01:29:20.965Z,21.30
2018-06-11T01:32:02.855Z,21.40
2018-06-11T01:34:44.051Z,21.40
2018-06-11T01:37:27.391Z,21.40
2018-06-11T01:40:08.900Z,21.30
2018-06-11T01:42:50.388Z,21.30
2018-06-11T01:45:31.831Z,21.30
2018-06-11T01:48:13.228Z,21.20
2018-06-11T01:50:55.527Z,21.30
2018-06-11T01:53:36.877Z,21.20
2018-06-11T01:56:18.169Z,21.10
2018-06-11T02:02:03.055Z,21.00
2018-06-11T02:04:44.943Z,21.00
2018-06-11T02:07:27.162Z,21.00
2018-06-11T02:10:08.198Z,20.90
2018-06-11T02:12:49.444Z,20.90
2018-06-11T02:15:31.133Z,20.90
2018-06-11T02:18:12.545Z,20.90
2018-06-11T02:20:54.221Z,20.90
2018-06-11T02:23:35.481Z,20.90
2018-06-11T02:26:17.000Z,20.90
2018-06-11T02:28:58.388Z,20.70
2018-06-11T02:31:39.847Z,20.70
2018-06-11T02:34:21.262Z,20.60
2018-06-11T02:37:03.341Z,20.60
2018-06-11T02:39:44.900Z,20.50
2018-06-11T02:42:26.866Z,20.50
2018-06-11T02:45:08.223Z,20.50
2018-06-11T02:47:49.495Z,20.50
2018-06-11T02:50:31.052Z,20.50
2018-06-11T02:53:12.551Z,20.50
2018-06-11T02:56:25.054Z,20.60
2018-06-11T02:59:06.445Z,20.60
2018-06-11T03:01:47.931Z,20.60
2018-06-11T03:04:29.553Z,20.70
2018-06-11T03:07:11.054Z,20.70
2018-06-11T03:09:53.099Z,20.60
2018-06-11T03:12:34.501Z,20.70
2018-06-11T03:15:15.770Z,20.70
2018-06-11T03:17:57.048Z,20.70
2018-06-11T03:20:38.376Z,20.80
2018-06-11T03:23:19.635Z,20.80
2018-06-11T03:26:00.927Z,20.90
2018-06-11T03:28:42.252Z,20.90
2018-06-11T03:31:24.188Z,20.90
2018-06-11T03:34:05.512Z,21.00
2018-06-11T03:36:47.365Z,21.00
2018-06-11T03:39:28.616Z,21.00
2018-06-11T03:42:09.932Z,20.90
2018-06-11T03:44:51.264Z,20.90
2018-06-11T03:47:32.562Z,20.90
2018-06-11T03:50:13.858Z,20.90
2018-06-11T03:52:55.671Z,21.00
2018-06-11T03:55:37.071Z,21.10
2018-06-11T03:58:18.368Z,21.20
2018-06-11T04:00:59.683Z,21.30
2018-06-11T04:03:41.100Z,21.40
2018-06-11T04:06:23.120Z,21.60
2018-06-11T04:09:06.077Z,21.60
2018-06-11T04:11:47.401Z,21.70
2018-06-11T04:14:28.715Z,21.80
2018-06-11T04:17:09.831Z,21.90
2018-06-11T04:19:51.522Z,21.90
2018-06-11T04:22:32.763Z,22.00
2018-06-11T04:25:14.014Z,22.00
2018-06-11T04:27:55.844Z,22.10
2018-06-11T04:30:37.357Z,22.20
2018-06-11T04:33:18.560Z,22.20
2018-06-11T04:35:59.973Z,22.30
2018-06-11T04:38:41.141Z,22.30
2018-06-11T04:41:23.359Z,22.40
2018-06-11T04:44:04.700Z,22.50
2018-06-11T04:46:46.344Z,22.50
2018-06-11T04:49:27.689Z,22.50
2018-06-11T04:52:09.053Z,22.60
2018-06-11T04:54:50.296Z,22.60
2018-06-11T04:57:32.095Z,22.60
2018-06-11T05:00:13.337Z,22.70
2018-06-11T05:02:55.138Z,22.70
2018-06-11T05:05:36.378Z,22.90
2018-06-11T05:08:17.685Z,23.00
2018-06-11T05:10:58.939Z,23.00
2018-06-11T05:13:40.686Z,23.10
2018-06-11T05:16:22.863Z,23.00
2018-06-11T05:19:04.144Z,22.90
2018-06-11T05:21:46.552Z,23.00
2018-06-11T05:24:27.927Z,23.00
2018-06-11T05:27:09.321Z,23.00
2018-06-11T05:29:51.380Z,23.00
2018-06-11T05:32:32.720Z,23.10
2018-06-11T05:35:14.054Z,23.10
2018-06-11T05:37:56.540Z,23.10
2018-06-11T05:40:37.726Z,23.00
2018-06-11T05:43:19.075Z,23.00
2018-06-11T05:46:01.646Z,22.90
2018-06-11T05:48:43.216Z,22.90
2018-06-11T05:51:25.172Z,22.90
2018-06-11T05:54:07.284Z,23.00
2018-06-11T05:56:48.710Z,23.00
2018-06-11T05:59:30.009Z,23.10
2018-06-11T06:02:11.461Z,23.10
2018-06-11T06:04:54.379Z,23.10
2018-06-11T06:07:35.869Z,23.10
2018-06-11T06:10:17.011Z,23.10
2018-06-11T06:12:59.252Z,23.20
2018-06-11T06:15:40.669Z,23.30
2018-06-11T06:18:24.400Z,23.30
2018-06-11T06:21:05.763Z,23.40
2018-06-11T06:23:47.232Z,23.40
2018-06-11T06:26:29.411Z,23.30
2018-06-11T06:29:10.774Z,23.40
2018-06-11T06:31:54.248Z,23.40
2018-06-11T06:34:35.643Z,23.30
2018-06-11T06:37:16.847Z,23.30
2018-06-11T06:39:58.197Z,23.20
2018-06-11T06:42:39.632Z,23.20
2018-06-11T06:45:21.483Z,23.20
2018-06-11T06:48:02.783Z,23.10
2018-06-11T06:50:44.207Z,23.10
2018-06-11T06:53:27.312Z,23.10
2018-06-11T06:56:08.502Z,23.30
2018-06-11T06:58:49.844Z,23.40
2018-06-11T07:01:31.168Z,23.40
2018-06-11T07:04:12.428Z,23.50
2018-06-11T07:06:56.122Z,23.50
2018-06-11T07:09:37.780Z,23.50
2018-06-11T07:12:19.611Z,23.60
2018-06-11T07:15:01.199Z,23.60
2018-06-11T07:17:42.534Z,23.80
2018-06-11T07:20:24.207Z,23.80
2018-06-11T07:23:05.512Z,23.70
2018-06-11T07:25:47.532Z,24.30
2018-06-11T07:28:29.008Z,24.30
2018-06-11T07:31:10.304Z,24.20
2018-06-11T07:33:52.964Z,24.20
2018-06-11T07:36:34.265Z,24.10
2018-06-11T07:39:15.613Z,24.10
2018-06-11T07:41:56.980Z,24.10
2018-06-11T07:44:38.395Z,24.60
2018-06-11T07:47:20.320Z,24.50
2018-06-11T07:50:01.843Z,24.30
2018-06-11T07:52:43.196Z,24.20
2018-06-11T07:55:25.178Z,24.10
2018-06-11T07:58:06.476Z,24.00
2018-06-11T08:00:47.773Z,24.10
2018-06-11T08:03:29.091Z,24.10
2018-06-11T08:06:10.369Z,24.10
2018-06-11T08:09:02.964Z,24.00
2018-06-11T08:11:44.571Z,23.90
2018-06-11T08:14:26.622Z,23.90
2018-06-11T08:17:08.094Z,24.60
2018-06-11T08:19:49.447Z,24.90
2018-06-11T08:22:31.610Z,24.80
2018-06-11T08:25:12.936Z,24.70
2018-06-11T08:27:54.518Z,24.60
2018-06-11T08:30:35.848Z,24.40
2018-06-11T08:33:17.427Z,24.70
2018-06-11T08:35:58.731Z,25.40
2018-06-11T08:38:40.089Z,26.00
2018-06-11T08:41:21.594Z,26.20
2018-06-11T08:44:02.871Z,25.80
2018-06-11T08:46:44.153Z,26.00
2018-06-11T08:49:25.977Z,26.50
2018-06-11T08:52:07.287Z,26.50
2018-06-11T08:54:48.641Z,26.10
2018-06-11T08:57:30.082Z,25.80
2018-06-11T09:00:12.257Z,26.00
2018-06-11T09:02:54.560Z,26.80
2018-06-11T09:05:35.949Z,27.30
2018-06-11T09:08:17.273Z,27.10
2018-06-11T09:10:58.640Z,26.60
2018-06-11T09:13:39.911Z,26.50
2018-06-11T09:16:22.440Z,27.00
2018-06-11T09:19:04.081Z,27.30
2018-06-11T09:21:45.424Z,26.80
2018-06-11T09:24:27.299Z,26.70
2018-06-11T09:27:08.800Z,26.30
2018-06-11T09:29:50.396Z,26.40
2018-06-11T09:32:31.772Z,26.70
2018-06-11T09:35:12.953Z,26.70
2018-06-11T09:37:55.287Z,27.00
2018-06-11T09:40:36.582Z,27.00
2018-06-11T09:43:18.130Z,27.10
2018-06-11T09:45:59.461Z,27.10
2018-06-11T09:48:41.229Z,26.70
2018-06-11T09:51:23.198Z,26.80
2018-06-11T09:54:04.481Z,27.10
2018-06-11T09:56:45.767Z,26.90
2018-06-11T09:59:27.156Z,26.40
2018-06-11T10:02:08.459Z,26.40
2018-06-11T10:04:49.883Z,26.70
2018-06-11T10:07:31.316Z,27.00
2018-06-11T10:10:12.664Z,27.30
2018-06-11T10:12:55.553Z,27.00
2018-06-11T10:15:36.921Z,27.00
2018-06-11T10:18:18.204Z,27.20
2018-06-11T10:20:59.704Z,27.20
2018-06-11T10:23:41.969Z,27.40
2018-06-11T10:26:25.501Z,27.10
2018-06-11T10:29:06.968Z,27.20
2018-06-11T10:31:48.180Z,27.40
2018-06-11T10:34:29.526Z,27.50
2018-06-11T10:37:10.970Z,27.30
2018-06-11T10:39:52.980Z,27.20
2018-06-11T10:42:34.304Z,27.40
2018-06-11T10:45:15.678Z,27.40
2018-06-11T10:47:57.120Z,27.20
2018-06-11T10:50:38.406Z,27.20
2018-06-11T10:53:19.691Z,27.30
2018-06-11T10:56:01.584Z,27.20
2018-06-11T10:58:42.924Z,26.90
2018-06-11T11:01:25.500Z,27.10
2018-06-11T11:04:07.084Z,27.00
2018-06-11T11:06:48.616Z,27.10
2018-06-11T11:09:29.954Z,27.00
2018-06-11T11:12:11.100Z,26.90
2018-06-11T11:14:52.998Z,26.70
2018-06-11T11:17:34.446Z,26.50
2018-06-11T11:20:15.732Z,26.60
2018-06-11T11:22:57.639Z,26.90
2018-06-11T11:25:38.971Z,26.70
2018-06-11T11:28:20.289Z,26.30
2018-06-11T11:31:01.634Z,26.10
2018-06-11T11:33:43.038Z,26.00
2018-06-11T11:36:25.297Z,26.20
2018-06-11T11:39:08.849Z,26.70
2018-06-11T11:41:50.144Z,26.70
2018-06-11T11:44:31.507Z,26.40
2018-06-11T11:47:12.855Z,26.10
2018-06-11T11:49:54.276Z,26.20
2018-06-11T11:52:35.786Z,26.50
2018-06-11T11:55:17.079Z,26.40
2018-06-11T11:57:58.437Z,26.30
2018-06-11T12:00:39.752Z,26.40
2018-06-11T12:03:21.782Z,26.70
2018-06-11T12:06:03.179Z,26.40
2018-06-11T12:08:46.596Z,26.20
2018-06-11T12:11:27.924Z,26.20
2018-06-11T12:14:10.164Z,26.50
2018-06-11T12:16:52.507Z,26.60
2018-06-11T12:19:34.025Z,26.60
2018-06-11T12:22:15.408Z,26.10
2018-06-11T12:24:56.576Z,25.90
2018-06-11T12:27:38.648Z,26.00
2018-06-11T12:30:20.080Z,26.30
2018-06-11T12:33:01.470Z,26.40
2018-06-11T12:35:42.960Z,26.30
2018-06-11T12:38:25.193Z,26.00
2018-06-11T12:41:06.562Z,26.00
2018-06-11T12:43:47.910Z,26.10
2018-06-11T12:46:29.235Z,26.10
2018-06-11T12:49:10.496Z,26.00
2018-06-11T12:51:52.330Z,26.20
2018-06-11T12:54:34.008Z,26.40
2018-06-11T12:57:15.371Z,26.40
2018-06-11T12:59:57.276Z,26.40
2018-06-11T13:02:38.641Z,26.60
2018-06-11T13:05:19.905Z,26.60
2018-06-11T13:08:01.419Z,26.50
2018-06-11T13:10:42.723Z,26.30
2018-06-11T13:13:25.128Z,26.10
2018-06-11T13:16:07.890Z,26.10
2018-06-11T13:18:49.919Z,26.30
2018-06-11T13:21:31.629Z,26.20
2018-06-11T13:24:12.800Z,25.90
2018-06-11T13:26:54.751Z,25.80
2018-06-11T13:29:36.320Z,26.00
2018-06-11T13:32:17.591Z,26.00
2018-06-11T13:34:58.911Z,26.30
2018-06-11T13:37:40.416Z,26.50
2018-06-11T13:40:22.719Z,26.40
2018-06-11T13:43:04.409Z,26.60
2018-06-11T13:45:45.797Z,26.60
2018-06-11T13:48:27.569Z,26.40
2018-06-11T13:51:09.039Z,26.30
2018-06-11T13:53:50.318Z,26.20
2018-06-11T13:56:32.287Z,26.00
2018-06-11T13:59:13.559Z,25.80
2018-06-11T14:01:55.349Z,25.90
2018-06-11T14:04:36.757Z,26.10
2018-06-11T14:07:18.255Z,26.20
2018-06-11T14:09:59.391Z,26.30
2018-06-11T14:12:40.969Z,26.70
2018-06-11T14:15:22.761Z,26.60
2018-06-11T14:18:04.299Z,26.60
2018-06-11T14:20:45.988Z,26.60
2018-06-11T14:23:28.972Z,26.70
2018-06-11T14:26:10.411Z,26.70
2018-06-11T14:28:52.396Z,26.60
2018-06-11T14:31:33.955Z,26.50
2018-06-11T14:34:15.241Z,26.50
2018-06-11T14:36:56.969Z,26.50
2018-06-11T14:39:38.237Z,26.40
2018-06-11T14:42:19.683Z,26.50
2018-06-11T14:45:01.087Z,26.40
2018-06-11T14:47:42.432Z,26.20
2018-06-11T14:50:24.326Z,26.20
2018-06-11T14:53:05.591Z,26.10
2018-06-11T14:55:46.922Z,26.10
2018-06-11T14:58:59.104Z,26.30
2018-06-11T15:01:40.690Z,26.30
2018-06-11T15:04:22.718Z,26.20
2018-06-11T15:07:04.008Z,26.10
2018-06-11T15:09:45.304Z,25.90
2018-06-11T15:12:27.002Z,25.80
2018-06-11T15:15:08.274Z,25.70
2018-06-11T15:17:49.719Z,25.90
2018-06-11T15:20:31.073Z,26.00
2018-06-11T15:23:12.376Z,26.00
2018-06-11T15:25:54.154Z,26.10
2018-06-11T15:28:35.471Z,26.00
2018-06-11T15:31:21.724Z,25.80
2018-06-11T15:34:03.118Z,25.70
2018-06-11T15:36:44.737Z,25.50
2018-06-11T15:39:26.417Z,25.50
2018-06-11T15:42:07.815Z,25.50
2018-06-11T15:44:48.844Z,25.40
2018-06-11T15:47:30.049Z,25.60
2018-06-11T15:50:11.575Z,26.10
2018-06-11T15:52:53.692Z,26.10
2018-06-11T15:55:35.102Z,25.90
2018-06-11T15:58:16.852Z,25.80
2018-06-11T16:00:58.447Z,25.90
2018-06-11T16:03:40.292Z,25.90
2018-06-11T16:06:22.584Z,25.90
2018-06-11T16:09:06.026Z,26.00
2018-06-11T16:11:47.226Z,26.10
2018-06-11T16:14:28.515Z,26.40
2018-06-11T16:17:09.840Z,26.30
2018-06-11T16:19:51.342Z,26.10
2018-06-11T16:22:32.841Z,26.00
2018-06-11T16:25:14.614Z,25.90
2018-06-11T16:27:57.763Z,25.80
2018-06-11T16:30:39.180Z,25.80
2018-06-11T16:33:20.833Z,25.90
2018-06-11T16:36:02.544Z,26.00
2018-06-11T16:38:43.961Z,26.00
2018-06-11T16:41:25.583Z,26.10
2018-06-11T16:44:07.219Z,26.10
2018-06-11T16:46:48.812Z,26.10
2018-06-11T16:49:30.063Z,26.00
2018-06-11T16:52:11.792Z,25.90
2018-06-11T16:54:54.381Z,25.80
2018-06-11T16:57:36.004Z,25.80
2018-06-11T17:00:17.491Z,25.70
2018-06-11T17:02:59.004Z,25.70
2018-06-11T17:05:40.307Z,25.70
2018-06-11T17:08:21.605Z,25.50
2018-06-11T17:11:02.944Z,25.50
2018-06-11T17:13:44.248Z,25.50
2018-06-11T17:16:26.994Z,25.40
2018-06-11T17:19:08.572Z,25.40
2018-06-11T17:21:49.905Z,25.40
2018-06-11T17:24:31.224Z,25.30
2018-06-11T17:27:12.688Z,25.20
2018-06-11T17:29:55.712Z,25.20
2018-06-11T17:32:37.037Z,25.20
2018-06-11T17:35:18.407Z,25.20
2018-06-11T17:37:59.568Z,25.20
2018-06-11T17:40:40.882Z,25.20
2018-06-11T17:43:29.416Z,25.20
2018-06-11T17:46:10.844Z,25.10
2018-06-11T17:48:52.770Z,25.10
2018-06-11T17:51:34.183Z,25.00
2018-06-11T17:54:15.617Z,25.00
2018-06-11T17:56:58.186Z,25.00
2018-06-11T17:59:39.670Z,25.00
2018-06-11T18:02:21.917Z,25.00
2018-06-11T18:05:03.713Z,24.90
2018-06-11T18:07:45.111Z,24.90
2018-06-11T18:10:27.132Z,24.90
2018-06-11T18:13:09.195Z,25.10
2018-06-11T18:15:50.561Z,25.10
2018-06-11T18:18:32.747Z,25.00
2018-06-11T18:21:14.104Z,24.90
2018-06-11T18:23:55.686Z,24.80
2018-06-11T18:26:37.009Z,24.80
2018-06-11T18:29:18.320Z,24.70
2018-06-11T18:31:59.858Z,24.70
2018-06-11T18:34:41.201Z,24.60
2018-06-11T18:37:22.850Z,24.60
2018-06-11T18:40:04.188Z,24.60
2018-06-11T18:42:45.587Z,24.50
2018-06-11T18:45:27.741Z,24.50
2018-06-11T18:48:09.613Z,24.40
2018-06-11T18:50:51.091Z,24.30
2018-06-11T18:53:33.513Z,24.20
2018-06-11T18:56:14.996Z,24.10
2018-06-11T18:58:56.546Z,24.10
2018-06-11T19:01:37.990Z,24.00
2018-06-11T19:04:19.336Z,23.90
2018-06-11T19:07:00.775Z,23.90
2018-06-11T19:09:42.128Z,23.80
2018-06-11T19:12:24.633Z,23.80
2018-06-11T19:15:06.107Z,23.70
2018-06-11T19:17:47.411Z,23.60
2018-06-11T19:20:28.819Z,23.60
2018-06-11T19:23:13.120Z,23.50
2018-06-11T19:25:55.716Z,23.40
2018-06-11T19:28:37.280Z,23.40
2018-06-11T19:31:18.777Z,23.40
2018-06-11T19:34:00.102Z,23.30
2018-06-11T19:36:41.822Z,23.20
2018-06-11T19:39:23.779Z,23.20
2018-06-11T19:42:05.105Z,23.10
2018-06-11T19:44:46.992Z,23.10
2018-06-11T19:47:28.411Z,23.00
2018-06-11T19:50:10.160Z,23.00
2018-06-11T19:52:51.592Z,23.00
2018-06-11T19:55:33.040Z,22.90
2018-06-11T19:58:14.525Z,22.90
2018-06-11T20:00:56.476Z,22.80
2018-06-11T20:03:37.991Z,22.80
2018-06-11T20:06:19.282Z,22.70
2018-06-11T20:09:01.725Z,22.70
2018-06-11T20:11:43.248Z,22.70
2018-06-11T20:14:25.613Z,22.60
2018-06-11T20:17:06.801Z,22.60
2018-06-11T20:19:48.322Z,22.60
2018-06-11T20:22:29.748Z,22.60
2018-06-11T20:25:11.124Z,22.50
2018-06-11T20:27:52.814Z,22.50
2018-06-11T20:30:34.332Z,22.50
2018-06-11T20:33:15.712Z,22.40
2018-06-11T20:35:57.660Z,22.40
2018-06-11T20:38:39.172Z,22.30
2018-06-11T20:41:21.552Z,22.30
2018-06-11T20:44:02.959Z,22.20
2018-06-11T20:46:45.118Z,22.10
2018-06-11T20:49:28.351Z,22.10
2018-06-11T20:52:09.868Z,22.00
2018-06-11T20:54:51.376Z,22.00
2018-06-11T20:57:32.943Z,21.90
2018-06-11T21:00:14.254Z,21.90
2018-06-11T21:02:55.640Z,21.80
2018-06-11T21:05:37.086Z,21.80
2018-06-11T21:08:18.420Z,21.80
2018-06-11T21:10:59.644Z,21.70
2018-06-11T21:13:41.219Z,21.70
2018-06-11T21:16:22.811Z,21.70
2018-06-11T21:19:04.252Z,21.70
2018-06-11T21:21:45.774Z,21.60
2018-06-11T21:24:27.917Z,21.60
2018-06-11T21:27:09.239Z,21.60
2018-06-11T21:29:50.643Z,21.60
2018-06-11T21:32:32.563Z,21.60
2018-06-11T21:35:15.900Z,21.60
2018-06-11T21:37:57.818Z,21.60
2018-06-11T21:40:39.306Z,21.60
2018-06-11T21:43:20.641Z,21.60
2018-06-11T21:46:02.358Z,21.50
2018-06-11T21:48:43.710Z,21.50
2018-06-11T21:51:25.580Z,21.50
2018-06-11T21:54:07.067Z,21.50
2018-06-11T21:56:51.706Z,21.50
2018-06-11T21:59:32.877Z,21.40
2018-06-11T22:02:14.230Z,21.40
2018-06-11T22:04:55.856Z,21.40
2018-06-11T22:07:37.216Z,21.30
2018-06-11T22:10:18.379Z,21.30
2018-06-11T22:12:59.706Z,21.30
2018-06-11T22:15:41.557Z,21.40
2018-06-11T22:18:24.503Z,21.30
2018-06-11T22:21:07.128Z,21.30
2018-06-11T22:23:48.720Z,21.30
2018-06-11T22:26:29.989Z,21.30
2018-06-11T22:29:11.332Z,21.30
2018-06-11T22:31:52.853Z,21.20
2018-06-11T22:34:34.369Z,21.20
2018-06-11T22:37:16.003Z,21.20
2018-06-11T22:39:57.917Z,21.20
2018-06-11T22:42:39.195Z,21.10
2018-06-11T22:45:20.501Z,21.10
2018-06-11T22:48:02.487Z,21.10
2018-06-11T22:50:56.993Z,21.10
2018-06-11T22:53:38.268Z,21.10
2018-06-11T22:56:19.582Z,21.10
2018-06-11T22:59:00.876Z,21.00
2018-06-11T23:01:42.288Z,21.00
2018-06-11T23:04:25.167Z,21.00
2018-06-11T23:07:06.070Z,21.00
2018-06-11T23:09:47.279Z,21.00
2018-06-11T23:12:28.994Z,21.00
2018-06-11T23:15:10.450Z,21.00
2018-06-11T23:17:52.056Z,21.00
2018-06-11T23:20:33.342Z,21.00
2018-06-11T23:23:15.061Z,21.00
2018-06-11T23:25:58.365Z,21.00
2018-06-11T23:28:39.727Z,20.90
2018-06-11T23:31:21.029Z,21.00
2018-06-11T23:34:02.978Z,20.90
2018-06-11T23:36:44.227Z,20.90
2018-06-11T23:39:26.056Z,20.90
2018-06-11T23:42:07.448Z,20.90
2018-06-11T23:44:48.790Z,20.80
2018-06-11T23:47:30.063Z,20.80
2018-06-11T23:50:11.386Z,20.80
2018-06-11T23:52:53.241Z,20.80
2018-06-11T23:55:34.556Z,20.80
2018-06-11T23:58:15.903Z,20.80
